• Join FlightAware (Why Join?)
  • Login
  • US Flag 
11:05PM EDT


 

Airport Tracker/Info


-or-


 

Live Flight TrackerFlight Track Log ✈ N415JA ✈ 10-Feb-2014 ✈ KPTK - MBPV / PLS

Flight Track Log - Related Links

Times and Time Zones

All times are in EST time to prevent confusion due to time zone crossing. See the N415JA flight status page for this flight to view local times or setup timezone preferences in your user account.

Time Position Orientation Groundspeed Altitude Reporting Facility
EST Latitude Longitude Course Direction KTS MPH feet Rate Location/Type
11:21AM 42.6625 -83.4519 276° West 160 184 1,800  Level Cleveland Center
11:22AM 42.6658 -83.4981 276° West 215 247 2,800 1,380 Climbing Cleveland Center
11:22AM 42.6856 -83.5064 343° North 215 247 3,400 3,060 Climbing Cleveland Center
11:23AM 42.7108 -83.4425 62° Northeast 235 270 6,000 2,940 Climbing Cleveland Center
11:23AM 42.7100 -83.4331 97° East 243 280 6,400 3,180 Climbing Cleveland Center
11:24AM 42.7175 -83.3433 83° East 270 311 9,300 2,940 Climbing Cleveland Center
11:25AM 42.6789 -83.2519 120° Southeast 308 354 12,000 3,000 Climbing Cleveland Center
11:26AM 42.5908 -83.2528 180° South 317 365 15,500 2,940 Climbing Cleveland Center
11:27AM 42.4997 -83.2606 184° South 327 376 18,100 2,580 Climbing Cleveland Center
11:28AM 42.4011 -83.2697 184° South 344 396 20,900 2,520 Climbing Cleveland Center
11:29AM 42.3019 -83.2803 185° South 354 407 23,400 2,160 Climbing Cleveland Center
11:30AM 42.1994 -83.2900 184° South 365 420 25,400 1,980 Climbing Cleveland Center
11:31AM 42.0783 -83.3028 184° South 370 426 27,500 1,800 Climbing Cleveland Center
11:32AM 41.9728 -83.3128 184° South 376 433 29,100 1,740 Climbing Cleveland Center
11:34AM 41.8822 -83.3214 184° South 383 441 31,100 1,560 Climbing Cleveland Center
11:35AM 41.7608 -83.3336 184° South 370 426 32,400 900 Climbing Cleveland Center
11:36AM 41.6539 -83.3386 182° South 382 440 33,000 480 Climbing Cleveland Center
11:37AM 41.5378 -83.3150 171° South 419 482 33,500 720 Climbing Cleveland Center
11:38AM 41.4231 -83.2939 172° South 418 481 34,500 840 Climbing Cleveland Center
11:39AM 41.3083 -83.2728 172° South 415 478 35,300 720 Climbing Cleveland Center
11:40AM 41.1947 -83.2519 172° South 414 476 36,000 660 Climbing Cleveland Center
11:41AM 41.0728 -83.2289 172° South 409 471 36,700 540 Climbing Cleveland Center
11:42AM 40.9594 -83.2081 172° South 412 474 37,200 360 Climbing Cleveland Center
11:43AM 40.7939 -83.1783 172° South 410 472 37,700 360 Climbing Indianapolis Center
11:44AM 40.6875 -83.1600 173° South 410 472 38,100 300 Climbing Indianapolis Center
11:45AM 40.5683 -83.1367 172° South 406 467 38,400 300 Climbing Indianapolis Center
11:46AM 40.4431 -83.1147 172° South 404 465 38,800 360 Climbing Indianapolis Center
11:47AM 40.3331 -83.0944 172° South 400 460 39,200 300 Climbing Indianapolis Center
11:48AM 40.2250 -83.0756 172° South 394 453 39,500 300 Climbing Indianapolis Center
11:49AM 40.1192 -83.0564 172° South 387 445 39,900 300 Climbing Indianapolis Center
11:50AM 40.0144 -83.0383 172° South 380 437 40,200 240 Climbing Indianapolis Center
11:51AM 39.9122 -83.0208 173° South 372 428 40,400 180 Climbing Indianapolis Center
11:52AM 39.8117 -83.0019 172° South 365 420 40,600 120 Climbing Indianapolis Center
11:53AM 39.7119 -82.9844 172° South 361 415 40,700 60 Climbing Indianapolis Center
11:54AM 39.6133 -82.9672 172° South 358 412 40,800  Climbing Indianapolis Center
11:55AM 39.5178 -82.9511 173° South 350 403 40,800 -840 Level Indianapolis Center
11:56AM 39.3944 -82.9292 172° South 364 419 39,100 -900 Descending Indianapolis Center
11:58AM 39.2819 -82.9106 173° South 392 451 39,000 -60 Descending Indianapolis Center
11:59AM 39.1692 -82.8900 172° South 403 464 39,000  Level Indianapolis Center
12:00PM 39.0572 -82.8672 171° South 406 467 39,000  Level Indianapolis Center
12:02PM 38.8261 -82.8269 172° South 415 478 39,000  Level Indianapolis Center
12:03PM 38.7122 -82.8089 173° South 413 475 39,000  Level Indianapolis Center
12:05PM 38.4733 -82.7669 172° South 410 472 39,000  Level Indianapolis Center
12:06PM 38.3611 -82.7489 173° South 406 467 39,000  Level Indianapolis Center
12:07PM 38.2486 -82.7308 173° South 406 467 39,000  Level Indianapolis Center
12:08PM 38.1356 -82.7114 172° South 408 470 39,000  Level Indianapolis Center
12:09PM 38.0197 -82.6911 172° South 414 476 39,000  Level Indianapolis Center
12:10PM 37.8853 -82.6689 173° South 416 479 39,000  Level Indianapolis Center
12:11PM 37.7692 -82.6506 173° South 418 481 39,000  Level Indianapolis Center
12:12PM 37.6528 -82.6303 172° South 420 483 39,000  Level Indianapolis Center
12:13PM 37.5356 -82.6106 172° South 423 487 39,000  Level Indianapolis Center
12:14PM 37.4178 -82.5914 173° South 423 487 39,000  Level Indianapolis Center
12:15PM 37.3014 -82.5714 172° South 422 486 39,000  Level Indianapolis Center
12:16PM 37.1828 -82.5519 173° South 423 487 39,000  Level Indianapolis Center
12:17PM 37.0661 -82.5314 172° South 421 484 39,000  Level Indianapolis Center
12:18PM 36.9486 -82.5125 173° South 420 483 39,000  Level Indianapolis Center
12:19PM 36.8314 -82.4936 173° South 419 482 39,000  Level Indianapolis Center
12:20PM 36.6944 -82.4719 173° South 421 484 39,000  Level Indianapolis Center
12:21PM 36.5767 -82.4519 172° South 421 484 39,000  Level Indianapolis Center
12:22PM 36.4597 -82.4331 173° South 422 486 39,000  Level Indianapolis Center
12:23PM 36.3981 -82.4214 171° South 428 493 39,000  Level Atlanta Center
12:25PM 36.1661 -82.3850 173° South 428 493 39,000  Level Atlanta Center
12:26PM 36.0489 -82.3669 173° South 428 493 39,000  Level Atlanta Center
12:27PM 35.9297 -82.3489 173° South 428 493 39,000  Level Atlanta Center
12:28PM 35.8147 -82.3281 172° South 428 493 39,000  Level Atlanta Center
12:29PM 35.7000 -82.3153 175° South 428 493 39,000  Level Atlanta Center
12:30PM 35.5869 -82.2972 173° South 421 484 39,000  Level Atlanta Center
12:31PM 35.4719 -82.2792 173° South 421 484 39,000  Level Atlanta Center
12:32PM 35.3550 -82.2614 173° South 428 493 39,000  Level Atlanta Center
12:34PM 35.1228 -82.2256 173° South 428 493 39,000  Level Atlanta Center
12:35PM 35.0056 -82.2056 172° South 428 493 39,000  Level Atlanta Center
12:36PM 34.8883 -82.1853 172° South 428 493 39,000  Level Atlanta Center
12:37PM 34.7714 -82.1650 172° South 428 493 39,000  Level Atlanta Center
12:38PM 34.6542 -82.1475 173° South 428 493 39,000  Level Atlanta Center
12:39PM 34.5453 -82.1297 172° South 433 498 39,000  Level Atlanta Center
12:40PM 34.4031 -82.1103 174° South 433 498 39,000  Level Atlanta Center
12:41PM 34.2858 -82.0903 172° South 433 498 39,000  Level Atlanta Center
12:42PM 34.1689 -82.0731 173° South 428 493 39,000  Level Atlanta Center
12:43PM 34.0517 -82.0531 172° South 428 493 39,000  Level Atlanta Center
12:45PM 33.8319 -82.0206 173° South 428 493 39,000 -300 Level Atlanta Center
12:47PM 33.5997 -81.9836 172° South 428 493 38,000 -360 Descending Atlanta Center
12:48PM 33.4803 -81.9667 173° South 428 493 38,000  Level Atlanta Center
12:49PM 33.3675 -81.9519 174° South 428 493 38,000  Level Atlanta Center
12:50PM 33.2503 -81.9325 172° South 428 493 38,000  Level Atlanta Center
12:51PM 33.1372 -81.9178 174° South 428 493 38,000  Level Atlanta Center
12:52PM 33.0222 -81.9008 173° South 428 493 38,000  Level Atlanta Center
12:53PM 32.9069 -81.8814 172° South 428 493 38,000  Level Atlanta Center
12:54PM 32.7825 -81.8622 173° South 424 488 38,000  Level Jacksonville Center
12:55PM 32.6864 -81.8508 174° South 424 488 38,000  Level Jacksonville Center
12:56PM 32.5608 -81.8328 173° South 410 472 38,000  Level Jacksonville Center
12:57PM 32.4481 -81.8167 173° South 410 472 38,000  Level Jacksonville Center
12:58PM 32.3433 -81.8008 173° South 410 472 38,000  Level Jacksonville Center
12:59PM 32.2200 -81.7825 173° South 410 472 38,000  Level Jacksonville Center
01:00PM 32.1178 -81.7667 173° South 410 472 38,000  Level Jacksonville Center
01:01PM 31.9944 -81.7486 173° South 410 472 38,000  Level Jacksonville Center
01:02PM 31.8814 -81.7328 173° South 410 472 38,000  Level Jacksonville Center
01:03PM 31.7811 -81.7194 174° South 410 472 38,000 420 Level Jacksonville Center
01:04PM 31.6619 -81.7039 174° South 405 466 38,900 780 Climbing Jacksonville Center
01:05PM 31.5658 -81.6881 172° South 405 466 39,600 540 Climbing Jacksonville Center
01:06PM 31.4528 -81.6700 172° South 391 450 40,000 180 Climbing Jacksonville Center
01:07PM 31.3461 -81.6569 174° South 386 444 40,000  Level Jacksonville Center
01:08PM 31.2375 -81.6414 173° South 392 451 40,000  Level Jacksonville Center
01:09PM 31.1289 -81.6233 172° South 392 451 40,000  Level Jacksonville Center
01:10PM 31.0200 -81.6078 173° South 399 459 40,000  Level Jacksonville Center
01:11PM 30.9072 -81.5947 174° South 399 459 40,000  Level Jacksonville Center
01:12PM 30.7964 -81.5769 172° South 404 465 40,000  Level Jacksonville Center
01:13PM 30.6856 -81.5592 172° South 404 465 40,000  Level Jacksonville Center
01:14PM 30.5764 -81.5075 158° South 414 476 40,000  Level Jacksonville Center
01:15PM 30.4692 -81.4536 157° South 419 482 40,000 -60 Level Jacksonville Center
01:16PM 30.3622 -81.3975 156° South 424 488 39,900  Descending Jacksonville Center
01:17PM 30.2656 -81.3461 155° Southeast 424 488 40,000  Climbing Jacksonville Center
01:20PM 29.9481 -81.1786 155° Southeast 419 482 40,000  Level Jacksonville Center
01:21PM 29.8431 -81.1256 156° South 419 482 40,000  Level Jacksonville Center
01:24PM 29.5297 -80.9639 133° Southeast 419 482 40,000  Level Jacksonville Center
01:26PM 29.3719 -80.8715 155° Southeast  Level FlightAware Approximate
01:26PM 29.3131 -80.8542 156° South 432 497 40,000  Level Miami Center
01:27PM 29.2061 -80.7981 155° Southeast 432 497 40,000  Level Miami Center
01:28PM 29.1014 -80.7419 155° Southeast 426 490 40,000  Level Miami Center
01:29PM 28.9903 -80.6858 156° South 426 490 40,000  Level Miami Center
01:30PM 28.8886 -80.5828 138° Southeast 432 497 40,000  Level Miami Center
01:31PM 28.8083 -80.4689 129° Southeast 441 507 40,000  Level Miami Center
01:33PM 28.6528 -80.2508 129° Southeast 470 541 40,000  Level Miami Center
01:34PM 28.5642 -80.1231 128° Southeast 470 541 40,000  Level Miami Center
01:35PM 28.4831 -80.0072 129° Southeast 470 541 40,000  Level Miami Center
01:36PM 28.4183 -79.9158 129° Southeast 470 541 40,000  Level Miami Center
01:37PM 28.3269 -79.7906 130° Southeast 470 541 40,000  Level Miami Center
01:38PM 28.2458 -79.6753 129° Southeast 465 535 40,000  Level Miami Center
01:40PM 28.0853 -79.4503 129° Southeast 465 535 40,000  Level Miami Center
01:41PM 28.0017 -79.3400 131° Southeast 465 535 40,000  Level Miami Center
01:42PM 27.9200 -79.2256 129° Southeast 465 535 40,000  Level Miami Center
01:43PM 27.8300 -79.0992 129° Southeast 465 535 40,000  Level Miami Center
01:44PM 27.7461 -78.9894 131° Southeast 465 535 40,000  Level Miami Center
01:45PM 27.6664 -78.8756 128° Southeast 465 535 40,000 120 Level Miami Center
01:46PM 27.5925 -78.7733 129° Southeast 465 535 40,300 300 Climbing Miami Center
01:47PM 27.5083 -78.6644 131° Southeast 459 528 40,700 300 Climbing Miami Center
01:48PM 27.4344 -78.5531 127° Southeast 459 528 41,000 120 Climbing Miami Center
01:49PM 27.3500 -78.4444 131° Southeast 459 528 41,000  Level Miami Center
01:50PM 27.2575 -78.3217 130° Southeast 459 528 41,000  Level Miami Center
01:51PM 27.1750 -78.2131 130° Southeast 459 528 41,000  Level Miami Center
01:52PM 27.0925 -78.1047 131° Southeast 465 535 41,000  Level Miami Center
01:53PM 27.0075 -77.9944 131° Southeast 465 535 41,000  Level Miami Center
01:54PM 26.9250 -77.8839 130° Southeast 465 535 41,000  Level Miami Center
01:55PM 26.8442 -77.7761 130° Southeast 459 528 41,000  Level Miami Center
01:57PM 26.6783 -77.5517 130° Southeast 468 539 41,000  Level Miami Center
01:58PM 26.6033 -77.4514 130° Southeast 473 544 41,000  Level Miami Center
01:59PM 26.5225 -77.3439 130° Southeast 527 606 41,000  Level Miami Center
02:00PM 26.4369 -77.2322 131° Southeast 458 527 41,000  Level Miami Center
02:01PM 26.3536 -77.1253 131° Southeast 463 533 41,000  Level Miami Center
02:02PM 26.2703 -77.0139 130° Southeast 463 533 41,000  Level Miami Center
02:04PM 26.0947 -76.7869 131° Southeast 464 534 41,000  Level Miami Center
02:05PM 26.0111 -76.6736 129° Southeast 464 534 41,000  Level Miami Center
02:06PM 25.9272 -76.5653 131° Southeast 464 534 41,000  Level Miami Center
02:07PM 25.8456 -76.4617 131° Southeast 458 527 41,000  Level Miami Center
02:09PM 25.6714 -76.2408 131° Southeast 463 533 41,000  Level Miami Center
02:10PM 25.5894 -76.1353 131° Southeast 463 533 41,000  Level Miami Center
02:11PM 25.5053 -76.0297 131° Southeast 463 533 41,000  Level Miami Center
02:12PM 25.4231 -75.9200 130° Southeast 463 533 41,000  Level Miami Center
02:13PM 25.3386 -75.8147 132° Southeast 456 525 41,000  Level Miami Center
02:14PM 25.2564 -75.7097 131° Southeast 456 525 41,000  Level Miami Center
02:15PM 25.1761 -75.6094 131° Southeast 456 525 41,000  Level Miami Center
02:16PM 25.0958 -75.5025 130° Southeast 456 525 41,000  Level Miami Center
02:17PM 25.0114 -75.3981 132° Southeast 456 525 41,000  Level Miami Center
02:19PM 24.8461 -75.1847 130° Southeast 450 518 41,000  Level Miami Center
02:20PM 24.7653 -75.0850 132° Southeast 450 518 41,000  Level Miami Center
02:21PM 24.6783 -74.9811 133° Southeast 455 524 41,000  Level Miami Center
02:22PM 24.5997 -74.8794 130° Southeast 455 524 41,000  Level Miami Center
02:23PM 24.5147 -74.7736 131° Southeast 455 524 41,000  Level Miami Center
02:24PM 24.4317 -74.6700 131° Southeast 455 524 41,000  Level Miami Center
02:25PM 24.3486 -74.5689 132° Southeast 450 518 41,000  Level Miami Center
02:26PM 24.2678 -74.4656 131° Southeast 450 518 41,000  Level Miami Center
02:27PM 24.1803 -74.3600 132° Southeast 455 524 41,000  Level Miami Center
02:28PM 24.0992 -74.2592 131° Southeast 455 524 41,000  Level Miami Center
02:29PM 24.0136 -74.1542 132° Southeast 455 524 41,000  Level Miami Center
02:30PM 23.9283 -74.0514 132° Southeast 455 524 41,000 -60 Level Miami Center
02:31PM 23.8469 -73.9489 131° Southeast 455 524 40,900 -780 Descending Miami Center
02:32PM 23.7678 -73.8553 133° Southeast 455 524 39,500 -1,740 Descending Miami Center
02:33PM 23.6800 -73.7508 133° Southeast 460 529 37,500 -2,040 Descending Miami Center
02:34PM 23.5942 -73.6464 132° Southeast 460 529 35,500 -2,160 Descending Miami Center
02:35PM 23.5125 -73.5419 130° Southeast 460 529 33,200 -2,400 Descending Miami Center
02:36PM 23.4289 -73.4444 133° Southeast 454 522 30,800 -2,520 Descending Miami Center
02:39PM 23.1667 -73.1308 132° Southeast 466 536 23,300 -2,460 Descending Miami Center
02:40PM 23.0869 -73.0339 132° Southeast 459 528 21,000 -2,400 Descending Miami Center
02:41PM 23.0069 -72.9278 129° Southeast 431 496 18,600 -2,280 Descending Miami Center
02:42PM 22.9356 -72.8400 131° Southeast 410 472 16,500 -2,160 Descending Miami Center
02:43PM 22.8581 -72.7567 135° Southeast 397 457 14,300 -2,100 Descending Miami Center
02:44PM 22.7933 -72.6778 132° Southeast 372 428 12,400 -1,800 Descending Miami Center
02:45PM 22.7328 -72.6053 132° Southeast 345 397 10,700 -1,680 Descending Miami Center
02:46PM 22.6808 -72.5372 130° Southeast 312 359 9,100 -1,260 Descending Miami Center
02:48PM 22.5792 -72.4192 133° Southeast 281 323 7,000 -720 Descending Miami Center
02:49PM 22.5253 -72.3581 134° Southeast 281 323 7,000 -300 Level Miami Center
02:50PM 22.4733 -72.2969 133° Southeast 281 323 6,500 -540 Descending Miami Center
02:52PM 22.2767 -72.3180 186° South  Level FlightAware Approximate
02:59PM 21.7667 -72.2667 169° South  Level FlightAware Approximate
03:00PM 21.7736 -72.2659 169° South  Level Estimated
03:01PM 21.7667 -72.2667 169° South  Level FlightAware Approximate
03:02PM 21.7736 -72.2659 169° South  Level Estimated
03:03PM 21.7667 -72.2667 169° South  Level FlightAware Approximate
03:04PM 21.7736 -72.2659 169° South  Level Estimated
03:05PM 21.7667 -72.2667 169° South  Level FlightAware Approximate
03:06PM 21.7736 -72.2659 169° South  Level Estimated
03:07PM 21.7667 -72.2667 169° South  Level FlightAware Approximate
03:08PM 21.7736 -72.2659 169° South  Level Estimated
03:09PM 21.7667 -72.2667 169° South  Level FlightAware Approximate
03:10PM 21.7736 -72.2659 169° South  Level Estimated
03:11PM 21.7667 -72.2667 169° South  Level FlightAware Approximate
03:12PM 21.7736 -72.2659 169° South  Level Estimated